sensor_id;sensor_type;location;lat;lon;timestamp;temperature;humidity
51922;DHT22;37948;53.260;6.394;2023-02-26T00:00:16;2.20;99.90
51922;DHT22;37948;53.260;6.394;2023-02-26T00:02:45;2.20;99.90
51922;DHT22;37948;53.260;6.394;2023-02-26T00:05:12;2.20;99.90
51922;DHT22;37948;53.260;6.394;2023-02-26T00:07:39;2.20;99.90
51922;DHT22;37948;53.260;6.394;2023-02-26T00:10:10;2.20;99.90
51922;DHT22;37948;53.260;6.394;2023-02-26T00:12:36;2.20;99.90
51922;DHT22;37948;53.260;6.394;2023-02-26T00:15:02;2.10;99.90
51922;DHT22;37948;53.260;6.394;2023-02-26T00:20:11;2.20;99.90
51922;DHT22;37948;53.260;6.394;2023-02-26T00:22:38;2.20;99.90
51922;DHT22;37948;53.260;6.394;2023-02-26T00:25:04;2.20;99.90
51922;DHT22;37948;53.260;6.394;2023-02-26T00:27:30;2.20;99.90
51922;DHT22;37948;53.260;6.394;2023-02-26T00:29:56;2.10;99.90
51922;DHT22;37948;53.260;6.394;2023-02-26T00:32:22;2.10;99.90
51922;DHT22;37948;53.260;6.394;2023-02-26T00:34:48;2.10;99.90
51922;DHT22;37948;53.260;6.394;2023-02-26T00:40:20;2.20;99.90
51922;DHT22;37948;53.260;6.394;2023-02-26T00:42:47;2.20;99.90
51922;DHT22;37948;53.260;6.394;2023-02-26T00:45:13;2.10;99.90
51922;DHT22;37948;53.260;6.394;2023-02-26T00:47:50;2.10;99.90
51922;DHT22;37948;53.260;6.394;2023-02-26T00:50:24;2.10;99.90
51922;DHT22;37948;53.260;6.394;2023-02-26T00:53:05;2.10;99.90
51922;DHT22;37948;53.260;6.394;2023-02-26T00:55:32;2.10;99.90
51922;DHT22;37948;53.260;6.394;2023-02-26T00:57:58;2.00;99.90
51922;DHT22;37948;53.260;6.394;2023-02-26T01:00:24;2.00;99.90
51922;DHT22;37948;53.260;6.394;2023-02-26T01:02:50;2.00;99.90
51922;DHT22;37948;53.260;6.394;2023-02-26T01:05:16;2.00;99.90
51922;DHT22;37948;53.260;6.394;2023-02-26T01:07:53;2.00;99.90
51922;DHT22;37948;53.260;6.394;2023-02-26T01:10:21;1.90;99.90
51922;DHT22;37948;53.260;6.394;2023-02-26T01:12:47;1.90;99.90
51922;DHT22;37948;53.260;6.394;2023-02-26T01:15:13;1.90;99.90
51922;DHT22;37948;53.260;6.394;2023-02-26T01:17:46;1.90;99.90
51922;DHT22;37948;53.260;6.394;2023-02-26T01:20:24;1.90;99.90
51922;DHT22;37948;53.260;6.394;2023-02-26T01:22:58;1.90;99.90
51922;DHT22;37948;53.260;6.394;2023-02-26T01:25:29;1.90;99.90
51922;DHT22;37948;53.260;6.394;2023-02-26T01:27:59;1.80;99.90
51922;DHT22;37948;53.260;6.394;2023-02-26T01:30:25;1.80;99.90
51922;DHT22;37948;53.260;6.394;2023-02-26T01:35:31;1.80;99.90
51922;DHT22;37948;53.260;6.394;2023-02-26T01:47:18;1.80;99.90
51922;DHT22;37948;53.260;6.394;2023-02-26T01:49:45;1.80;99.90
51922;DHT22;37948;53.260;6.394;2023-02-26T01:55:15;1.80;99.90
51922;DHT22;37948;53.260;6.394;2023-02-26T01:57:41;1.80;99.90
51922;DHT22;37948;53.260;6.394;2023-02-26T02:00:08;1.80;99.90
51922;DHT22;37948;53.260;6.394;2023-02-26T02:02:34;1.80;99.90
51922;DHT22;37948;53.260;6.394;2023-02-26T02:05:14;1.80;99.90
51922;DHT22;37948;53.260;6.394;2023-02-26T02:07:41;1.80;99.90
51922;DHT22;37948;53.260;6.394;2023-02-26T02:10:07;1.70;99.90
51922;DHT22;37948;53.260;6.394;2023-02-26T02:12:46;1.70;99.90
51922;DHT22;37948;53.260;6.394;2023-02-26T02:15:27;1.70;99.90
51922;DHT22;37948;53.260;6.394;2023-02-26T02:18:20;1.70;99.90
51922;DHT22;37948;53.260;6.394;2023-02-26T02:31:32;1.60;99.90
51922;DHT22;37948;53.260;6.394;2023-02-26T02:36:55;1.60;99.90
51922;DHT22;37948;53.260;6.394;2023-02-26T02:39:33;1.50;99.90
51922;DHT22;37948;53.260;6.394;2023-02-26T02:42:28;1.50;99.90
51922;DHT22;37948;53.260;6.394;2023-02-26T02:47:41;1.50;99.90
51922;DHT22;37948;53.260;6.394;2023-02-26T02:50:19;1.50;99.90
51922;DHT22;37948;53.260;6.394;2023-02-26T02:52:53;1.50;99.90
51922;DHT22;37948;53.260;6.394;2023-02-26T02:55:27;1.40;99.90
51922;DHT22;37948;53.260;6.394;2023-02-26T02:58:09;1.40;99.90
51922;DHT22;37948;53.260;6.394;2023-02-26T03:00:51;1.40;99.90
51922;DHT22;37948;53.260;6.394;2023-02-26T03:03:34;1.40;99.90
51922;DHT22;37948;53.260;6.394;2023-02-26T03:06:01;1.40;99.90
51922;DHT22;37948;53.260;6.394;2023-02-26T03:08:33;1.30;99.90
51922;DHT22;37948;53.260;6.394;2023-02-26T03:11:00;1.30;99.90
51922;DHT22;37948;53.260;6.394;2023-02-26T03:13:26;1.30;99.90
51922;DHT22;37948;53.260;6.394;2023-02-26T03:18:53;1.30;99.90
51922;DHT22;37948;53.260;6.394;2023-02-26T03:24:45;1.30;99.90
51922;DHT22;37948;53.260;6.394;2023-02-26T03:27:33;1.30;99.90
51922;DHT22;37948;53.260;6.394;2023-02-26T03:30:11;1.30;99.90
51922;DHT22;37948;53.260;6.394;2023-02-26T03:33:08;1.30;99.90
51922;DHT22;37948;53.260;6.394;2023-02-26T03:38:21;1.30;99.90
51922;DHT22;37948;53.260;6.394;2023-02-26T03:41:00;1.30;99.90
51922;DHT22;37948;53.260;6.394;2023-02-26T03:43:59;1.30;99.90
51922;DHT22;37948;53.260;6.394;2023-02-26T03:46:30;1.30;99.90
51922;DHT22;37948;53.260;6.394;2023-02-26T03:48:59;1.30;99.90
51922;DHT22;37948;53.260;6.394;2023-02-26T03:51:26;1.20;99.90
51922;DHT22;37948;53.260;6.394;2023-02-26T03:53:59;1.30;99.90
51922;DHT22;37948;53.260;6.394;2023-02-26T03:56:44;1.30;99.90
51922;DHT22;37948;53.260;6.394;2023-02-26T03:59:12;1.20;99.90
51922;DHT22;37948;53.260;6.394;2023-02-26T04:01:43;1.20;99.90
51922;DHT22;37948;53.260;6.394;2023-02-26T04:04:24;1.20;99.90
51922;DHT22;37948;53.260;6.394;2023-02-26T04:06:52;1.20;99.90
51922;DHT22;37948;53.260;6.394;2023-02-26T04:09:20;1.20;99.90
51922;DHT22;37948;53.260;6.394;2023-02-26T04:11:47;1.20;99.90
51922;DHT22;37948;53.260;6.394;2023-02-26T04:14:13;1.20;99.90
51922;DHT22;37948;53.260;6.394;2023-02-26T04:16:41;1.20;99.90
51922;DHT22;37948;53.260;6.394;2023-02-26T04:19:07;1.20;99.90
51922;DHT22;37948;53.260;6.394;2023-02-26T04:21:33;1.20;99.90
51922;DHT22;37948;53.260;6.394;2023-02-26T04:23:58;1.20;99.90
51922;DHT22;37948;53.260;6.394;2023-02-26T04:26:24;1.20;99.90
51922;DHT22;37948;53.260;6.394;2023-02-26T04:28:50;1.20;99.90
51922;DHT22;37948;53.260;6.394;2023-02-26T04:31:15;1.20;99.90
51922;DHT22;37948;53.260;6.394;2023-02-26T04:33:41;1.20;99.90
51922;DHT22;37948;53.260;6.394;2023-02-26T04:36:07;1.30;99.90
51922;DHT22;37948;53.260;6.394;2023-02-26T04:38:33;1.30;99.90
51922;DHT22;37948;53.260;6.394;2023-02-26T04:40:59;1.30;99.90
51922;DHT22;37948;53.260;6.394;2023-02-26T04:43:24;1.30;99.90
51922;DHT22;37948;53.260;6.394;2023-02-26T04:45:50;1.20;99.90
51922;DHT22;37948;53.260;6.394;2023-02-26T04:48:16;1.20;99.90
51922;DHT22;37948;53.260;6.394;2023-02-26T04:50:42;1.20;99.90
51922;DHT22;37948;53.260;6.394;2023-02-26T04:53:08;1.20;99.90
51922;DHT22;37948;53.260;6.394;2023-02-26T04:55:34;1.20;99.90
51922;DHT22;37948;53.260;6.394;2023-02-26T04:58:00;1.20;99.90
51922;DHT22;37948;53.260;6.394;2023-02-26T05:00:26;1.20;99.90
51922;DHT22;37948;53.260;6.394;2023-02-26T05:02:52;1.10;99.90
51922;DHT22;37948;53.260;6.394;2023-02-26T05:05:17;1.10;99.90
51922;DHT22;37948;53.260;6.394;2023-02-26T05:07:43;1.10;99.90
51922;DHT22;37948;53.260;6.394;2023-02-26T05:10:09;1.10;99.90
51922;DHT22;37948;53.260;6.394;2023-02-26T05:12:35;1.10;99.90
51922;DHT22;37948;53.260;6.394;2023-02-26T05:15:01;1.10;99.90
51922;DHT22;37948;53.260;6.394;2023-02-26T05:17:27;1.10;99.90
51922;DHT22;37948;53.260;6.394;2023-02-26T05:19:52;1.10;99.90
51922;DHT22;37948;53.260;6.394;2023-02-26T05:22:18;1.10;99.90
51922;DHT22;37948;53.260;6.394;2023-02-26T05:24:43;1.10;99.90
51922;DHT22;37948;53.260;6.394;2023-02-26T05:27:09;1.10;99.90
51922;DHT22;37948;53.260;6.394;2023-02-26T05:29:35;1.10;99.90
51922;DHT22;37948;53.260;6.394;2023-02-26T05:32:01;1.10;99.90
51922;DHT22;37948;53.260;6.394;2023-02-26T05:34:27;1.10;99.90
51922;DHT22;37948;53.260;6.394;2023-02-26T05:36:52;1.10;99.90
51922;DHT22;37948;53.260;6.394;2023-02-26T05:39:18;1.10;99.90
51922;DHT22;37948;53.260;6.394;2023-02-26T05:41:43;1.10;99.90
51922;DHT22;37948;53.260;6.394;2023-02-26T05:44:11;1.10;99.90
51922;DHT22;37948;53.260;6.394;2023-02-26T05:46:36;1.10;99.90
51922;DHT22;37948;53.260;6.394;2023-02-26T05:49:02;1.10;99.90
51922;DHT22;37948;53.260;6.394;2023-02-26T05:51:28;1.00;99.90
51922;DHT22;37948;53.260;6.394;2023-02-26T05:53:53;1.10;99.90
51922;DHT22;37948;53.260;6.394;2023-02-26T05:56:19;1.10;99.90
51922;DHT22;37948;53.260;6.394;2023-02-26T05:58:45;1.10;99.90
51922;DHT22;37948;53.260;6.394;2023-02-26T06:01:10;1.10;99.90
51922;DHT22;37948;53.260;6.394;2023-02-26T06:03:36;1.10;99.90
51922;DHT22;37948;53.260;6.394;2023-02-26T06:06:04;1.00;99.90
51922;DHT22;37948;53.260;6.394;2023-02-26T06:08:30;1.00;99.90
51922;DHT22;37948;53.260;6.394;2023-02-26T06:10:55;1.00;99.90
51922;DHT22;37948;53.260;6.394;2023-02-26T06:13:21;1.00;99.90
51922;DHT22;37948;53.260;6.394;2023-02-26T06:15:49;1.00;99.90
51922;DHT22;37948;53.260;6.394;2023-02-26T06:18:15;1.00;99.90
51922;DHT22;37948;53.260;6.394;2023-02-26T06:20:40;0.90;99.90
51922;DHT22;37948;53.260;6.394;2023-02-26T06:23:06;0.90;99.90
51922;DHT22;37948;53.260;6.394;2023-02-26T06:25:32;0.90;99.90
51922;DHT22;37948;53.260;6.394;2023-02-26T06:27:57;0.90;99.90
51922;DHT22;37948;53.260;6.394;2023-02-26T06:30:23;0.90;99.90
51922;DHT22;37948;53.260;6.394;2023-02-26T06:32:48;0.90;99.90
51922;DHT22;37948;53.260;6.394;2023-02-26T06:35:14;0.80;99.90
51922;DHT22;37948;53.260;6.394;2023-02-26T06:37:40;0.80;99.90
51922;DHT22;37948;53.260;6.394;2023-02-26T06:40:06;0.80;99.90
51922;DHT22;37948;53.260;6.394;2023-02-26T06:42:31;0.80;99.90
51922;DHT22;37948;53.260;6.394;2023-02-26T06:44:57;0.80;99.90
51922;DHT22;37948;53.260;6.394;2023-02-26T06:47:23;0.80;99.90
51922;DHT22;37948;53.260;6.394;2023-02-26T06:49:49;0.80;99.90
51922;DHT22;37948;53.260;6.394;2023-02-26T06:52:14;0.90;99.90
51922;DHT22;37948;53.260;6.394;2023-02-26T06:54:40;0.90;99.90
51922;DHT22;37948;53.260;6.394;2023-02-26T06:57:05;0.90;99.90
51922;DHT22;37948;53.260;6.394;2023-02-26T06:59:31;0.90;99.90
51922;DHT22;37948;53.260;6.394;2023-02-26T07:01:57;0.90;99.90
51922;DHT22;37948;53.260;6.394;2023-02-26T07:04:23;0.90;99.90
51922;DHT22;37948;53.260;6.394;2023-02-26T07:06:48;0.90;99.90
51922;DHT22;37948;53.260;6.394;2023-02-26T07:09:14;0.90;99.90
51922;DHT22;37948;53.260;6.394;2023-02-26T07:11:39;0.80;99.90
51922;DHT22;37948;53.260;6.394;2023-02-26T07:14:05;0.80;99.90
51922;DHT22;37948;53.260;6.394;2023-02-26T07:16:30;0.80;99.90
51922;DHT22;37948;53.260;6.394;2023-02-26T07:18:56;0.80;99.90
51922;DHT22;37948;53.260;6.394;2023-02-26T07:21:22;0.80;99.90
51922;DHT22;37948;53.260;6.394;2023-02-26T07:23:47;0.80;99.90
51922;DHT22;37948;53.260;6.394;2023-02-26T07:26:13;0.80;99.90
51922;DHT22;37948;53.260;6.394;2023-02-26T07:28:38;0.70;99.90
51922;DHT22;37948;53.260;6.394;2023-02-26T07:31:04;0.80;99.90
51922;DHT22;37948;53.260;6.394;2023-02-26T07:33:30;0.80;99.90
51922;DHT22;37948;53.260;6.394;2023-02-26T07:35:56;0.80;99.90
51922;DHT22;37948;53.260;6.394;2023-02-26T07:38:22;0.80;99.90
51922;DHT22;37948;53.260;6.394;2023-02-26T07:40:48;0.80;99.90
51922;DHT22;37948;53.260;6.394;2023-02-26T07:43:13;0.80;99.90
51922;DHT22;37948;53.260;6.394;2023-02-26T07:45:39;0.90;99.90
51922;DHT22;37948;53.260;6.394;2023-02-26T07:48:04;0.90;99.90
51922;DHT22;37948;53.260;6.394;2023-02-26T07:50:30;1.00;99.90
51922;DHT22;37948;53.260;6.394;2023-02-26T07:52:56;1.00;99.90
51922;DHT22;37948;53.260;6.394;2023-02-26T07:55:21;1.00;99.90
51922;DHT22;37948;53.260;6.394;2023-02-26T07:57:47;1.10;99.90
51922;DHT22;37948;53.260;6.394;2023-02-26T08:00:13;1.20;99.90
51922;DHT22;37948;53.260;6.394;2023-02-26T08:02:40;1.20;99.90
51922;DHT22;37948;53.260;6.394;2023-02-26T08:05:05;1.30;99.90
51922;DHT22;37948;53.260;6.394;2023-02-26T08:07:31;1.40;99.90
51922;DHT22;37948;53.260;6.394;2023-02-26T08:09:57;1.40;99.90
51922;DHT22;37948;53.260;6.394;2023-02-26T08:12:23;1.50;99.90
51922;DHT22;37948;53.260;6.394;2023-02-26T08:14:49;1.60;99.90
51922;DHT22;37948;53.260;6.394;2023-02-26T08:17:14;1.70;99.90
51922;DHT22;37948;53.260;6.394;2023-02-26T08:19:40;1.80;99.90
51922;DHT22;37948;53.260;6.394;2023-02-26T08:22:05;1.80;99.90
51922;DHT22;37948;53.260;6.394;2023-02-26T08:24:31;1.90;99.90
51922;DHT22;37948;53.260;6.394;2023-02-26T08:26:57;2.00;99.90
51922;DHT22;37948;53.260;6.394;2023-02-26T08:29:22;2.10;99.90
51922;DHT22;37948;53.260;6.394;2023-02-26T08:31:48;2.20;99.90
51922;DHT22;37948;53.260;6.394;2023-02-26T08:34:14;2.40;99.90
51922;DHT22;37948;53.260;6.394;2023-02-26T08:36:39;2.50;99.90
51922;DHT22;37948;53.260;6.394;2023-02-26T08:39:06;2.60;99.90
51922;DHT22;37948;53.260;6.394;2023-02-26T08:41:32;2.70;99.90
51922;DHT22;37948;53.260;6.394;2023-02-26T08:44:01;2.80;99.90
51922;DHT22;37948;53.260;6.394;2023-02-26T08:46:27;2.90;99.90
51922;DHT22;37948;53.260;6.394;2023-02-26T08:48:53;3.00;99.90
51922;DHT22;37948;53.260;6.394;2023-02-26T08:51:20;3.10;99.90
51922;DHT22;37948;53.260;6.394;2023-02-26T08:53:46;3.20;99.90
51922;DHT22;37948;53.260;6.394;2023-02-26T08:56:12;3.30;99.90
51922;DHT22;37948;53.260;6.394;2023-02-26T08:58:38;3.40;99.90
51922;DHT22;37948;53.260;6.394;2023-02-26T09:01:03;3.50;99.90
51922;DHT22;37948;53.260;6.394;2023-02-26T09:03:29;3.60;99.90
51922;DHT22;37948;53.260;6.394;2023-02-26T09:05:54;3.70;99.90
51922;DHT22;37948;53.260;6.394;2023-02-26T09:08:20;3.70;99.90
51922;DHT22;37948;53.260;6.394;2023-02-26T09:10:46;3.90;99.90
51922;DHT22;37948;53.260;6.394;2023-02-26T09:13:12;4.00;99.90
51922;DHT22;37948;53.260;6.394;2023-02-26T09:15:37;4.10;99.90
51922;DHT22;37948;53.260;6.394;2023-02-26T09:18:03;4.10;99.90
51922;DHT22;37948;53.260;6.394;2023-02-26T09:20:29;4.20;99.90
51922;DHT22;37948;53.260;6.394;2023-02-26T09:22:55;4.20;99.90
51922;DHT22;37948;53.260;6.394;2023-02-26T09:25:20;4.30;99.90
51922;DHT22;37948;53.260;6.394;2023-02-26T09:27:46;4.40;99.90
51922;DHT22;37948;53.260;6.394;2023-02-26T09:30:12;4.50;99.90
51922;DHT22;37948;53.260;6.394;2023-02-26T09:32:38;4.60;99.90
51922;DHT22;37948;53.260;6.394;2023-02-26T09:35:04;4.70;99.90
51922;DHT22;37948;53.260;6.394;2023-02-26T09:37:30;4.80;99.90
51922;DHT22;37948;53.260;6.394;2023-02-26T09:39:56;4.80;99.90
51922;DHT22;37948;53.260;6.394;2023-02-26T09:45:30;5.00;99.90
51922;DHT22;37948;53.260;6.394;2023-02-26T09:47:58;5.00;99.90
51922;DHT22;37948;53.260;6.394;2023-02-26T09:50:51;5.10;99.90
51922;DHT22;37948;53.260;6.394;2023-02-26T09:53:34;5.20;99.90
51922;DHT22;37948;53.260;6.394;2023-02-26T09:56:17;5.30;99.90
51922;DHT22;37948;53.260;6.394;2023-02-26T09:58:44;5.30;99.90
51922;DHT22;37948;53.260;6.394;2023-02-26T10:01:28;5.40;99.90
51922;DHT22;37948;53.260;6.394;2023-02-26T10:04:20;5.50;99.90
51922;DHT22;37948;53.260;6.394;2023-02-26T10:12:20;5.60;99.90
51922;DHT22;37948;53.260;6.394;2023-02-26T10:14:52;5.70;99.90
51922;DHT22;37948;53.260;6.394;2023-02-26T10:20:14;5.80;99.90
51922;DHT22;37948;53.260;6.394;2023-02-26T10:25:39;6.00;99.90
51922;DHT22;37948;53.260;6.394;2023-02-26T10:31:08;6.00;99.90
51922;DHT22;37948;53.260;6.394;2023-02-26T10:36:44;5.90;99.90
51922;DHT22;37948;53.260;6.394;2023-02-26T10:41:50;5.80;99.90
51922;DHT22;37948;53.260;6.394;2023-02-26T10:45:16;5.70;99.90
51922;DHT22;37948;53.260;6.394;2023-02-26T10:47:28;5.60;99.90
51922;DHT22;37948;53.260;6.394;2023-02-26T10:50:02;5.60;99.90
51922;DHT22;37948;53.260;6.394;2023-02-26T10:52:31;5.60;99.90
51922;DHT22;37948;53.260;6.394;2023-02-26T10:55:20;5.80;99.90
51922;DHT22;37948;53.260;6.394;2023-02-26T10:58:13;5.80;99.90
51922;DHT22;37948;53.260;6.394;2023-02-26T11:00:42;5.80;99.90
51922;DHT22;37948;53.260;6.394;2023-02-26T11:03:15;5.70;99.90
51922;DHT22;37948;53.260;6.394;2023-02-26T11:05:42;5.80;99.90
51922;DHT22;37948;53.260;6.394;2023-02-26T11:08:31;5.90;99.90
51922;DHT22;37948;53.260;6.394;2023-02-26T11:10:58;6.00;99.90
51922;DHT22;37948;53.260;6.394;2023-02-26T11:13:27;6.20;99.90
51922;DHT22;37948;53.260;6.394;2023-02-26T11:15:57;6.40;99.90
51922;DHT22;37948;53.260;6.394;2023-02-26T11:18:34;6.60;99.90
51922;DHT22;37948;53.260;6.394;2023-02-26T11:21:04;6.60;99.90
51922;DHT22;37948;53.260;6.394;2023-02-26T11:23:30;6.70;99.90
51922;DHT22;37948;53.260;6.394;2023-02-26T11:26:04;6.60;99.90
51922;DHT22;37948;53.260;6.394;2023-02-26T11:28:33;6.60;99.90
51922;DHT22;37948;53.260;6.394;2023-02-26T11:31:01;6.60;99.90
51922;DHT22;37948;53.260;6.394;2023-02-26T11:33:36;6.70;99.90
51922;DHT22;37948;53.260;6.394;2023-02-26T11:36:12;6.90;99.90
51922;DHT22;37948;53.260;6.394;2023-02-26T11:38:39;7.10;99.90
51922;DHT22;37948;53.260;6.394;2023-02-26T11:41:06;7.20;99.90
51922;DHT22;37948;53.260;6.394;2023-02-26T11:43:41;7.20;99.90
51922;DHT22;37948;53.260;6.394;2023-02-26T11:46:08;7.20;99.90
51922;DHT22;37948;53.260;6.394;2023-02-26T11:48:43;7.10;99.90
51922;DHT22;37948;53.260;6.394;2023-02-26T11:51:18;7.00;99.90
51922;DHT22;37948;53.260;6.394;2023-02-26T11:53:58;7.00;99.90
51922;DHT22;37948;53.260;6.394;2023-02-26T11:56:36;7.10;99.90
51922;DHT22;37948;53.260;6.394;2023-02-26T11:59:23;7.10;99.90
51922;DHT22;37948;53.260;6.394;2023-02-26T12:01:50;7.10;99.90
51922;DHT22;37948;53.260;6.394;2023-02-26T12:04:21;7.20;99.90
51922;DHT22;37948;53.260;6.394;2023-02-26T12:06:49;7.30;99.90
51922;DHT22;37948;53.260;6.394;2023-02-26T12:09:16;7.40;99.90
51922;DHT22;37948;53.260;6.394;2023-02-26T12:22:34;7.40;99.90
51922;DHT22;37948;53.260;6.394;2023-02-26T12:36:49;7.00;99.90
51922;DHT22;37948;53.260;6.394;2023-02-26T12:51:14;6.70;99.90
51922;DHT22;37948;53.260;6.394;2023-02-26T12:57:14;6.80;99.90
51922;DHT22;37948;53.260;6.394;2023-02-26T13:08:23;7.00;99.90
51922;DHT22;37948;53.260;6.394;2023-02-26T13:13:40;6.80;99.90
51922;DHT22;37948;53.260;6.394;2023-02-26T13:16:18;6.70;99.90
51922;DHT22;37948;53.260;6.394;2023-02-26T13:21:32;6.50;99.90
51922;DHT22;37948;53.260;6.394;2023-02-26T13:26:31;6.40;99.90
51922;DHT22;37948;53.260;6.394;2023-02-26T13:29:19;6.40;99.90
51922;DHT22;37948;53.260;6.394;2023-02-26T13:34:20;6.30;99.90
51922;DHT22;37948;53.260;6.394;2023-02-26T13:36:48;6.40;99.90
51922;DHT22;37948;53.260;6.394;2023-02-26T13:42:35;6.40;99.90
51922;DHT22;37948;53.260;6.394;2023-02-26T13:47:58;6.50;99.90
51922;DHT22;37948;53.260;6.394;2023-02-26T13:56:07;6.30;99.90
51922;DHT22;37948;53.260;6.394;2023-02-26T13:58:39;6.20;99.90
51922;DHT22;37948;53.260;6.394;2023-02-26T14:01:16;6.20;99.90
51922;DHT22;37948;53.260;6.394;2023-02-26T14:06:58;6.30;99.90
51922;DHT22;37948;53.260;6.394;2023-02-26T14:15:16;6.10;99.90
51922;DHT22;37948;53.260;6.394;2023-02-26T14:22:35;6.00;99.90
51922;DHT22;37948;53.260;6.394;2023-02-26T14:25:32;6.10;99.90
51922;DHT22;37948;53.260;6.394;2023-02-26T14:30:52;6.40;99.90
51922;DHT22;37948;53.260;6.394;2023-02-26T14:33:28;6.30;99.90
51922;DHT22;37948;53.260;6.394;2023-02-26T14:35:54;6.30;99.90
51922;DHT22;37948;53.260;6.394;2023-02-26T14:38:30;6.20;99.90
51922;DHT22;37948;53.260;6.394;2023-02-26T14:41:10;6.20;99.90
51922;DHT22;37948;53.260;6.394;2023-02-26T14:43:44;6.30;99.90
51922;DHT22;37948;53.260;6.394;2023-02-26T14:46:14;6.30;99.90
51922;DHT22;37948;53.260;6.394;2023-02-26T14:48:40;6.30;99.90
51922;DHT22;37948;53.260;6.394;2023-02-26T14:59:50;6.40;99.90
51922;DHT22;37948;53.260;6.394;2023-02-26T15:23:16;6.00;99.90
51922;DHT22;37948;53.260;6.394;2023-02-26T15:25:48;6.00;99.90
51922;DHT22;37948;53.260;6.394;2023-02-26T15:30:50;6.00;99.90
51922;DHT22;37948;53.260;6.394;2023-02-26T15:33:18;6.00;99.90
51922;DHT22;37948;53.260;6.394;2023-02-26T15:35:47;5.90;99.90
51922;DHT22;37948;53.260;6.394;2023-02-26T15:38:13;5.80;99.90
51922;DHT22;37948;53.260;6.394;2023-02-26T15:40:38;5.70;99.90
51922;DHT22;37948;53.260;6.394;2023-02-26T15:43:06;5.60;99.90
51922;DHT22;37948;53.260;6.394;2023-02-26T15:45:40;5.60;99.90
51922;DHT22;37948;53.260;6.394;2023-02-26T15:50:39;5.60;99.90
51922;DHT22;37948;53.260;6.394;2023-02-26T15:53:08;5.60;99.90
51922;DHT22;37948;53.260;6.394;2023-02-26T15:55:42;5.60;99.90
51922;DHT22;37948;53.260;6.394;2023-02-26T15:58:14;5.60;99.90
51922;DHT22;37948;53.260;6.394;2023-02-26T16:00:43;5.60;99.90
51922;DHT22;37948;53.260;6.394;2023-02-26T16:03:09;5.50;99.90
51922;DHT22;37948;53.260;6.394;2023-02-26T16:05:35;5.50;99.90
51922;DHT22;37948;53.260;6.394;2023-02-26T16:08:03;5.40;99.90
51922;DHT22;37948;53.260;6.394;2023-02-26T16:10:35;5.40;99.90
51922;DHT22;37948;53.260;6.394;2023-02-26T16:13:04;5.40;99.90
51922;DHT22;37948;53.260;6.394;2023-02-26T16:15:36;5.40;99.90
51922;DHT22;37948;53.260;6.394;2023-02-26T16:18:08;5.30;99.90
51922;DHT22;37948;53.260;6.394;2023-02-26T16:20:39;5.30;99.90
51922;DHT22;37948;53.260;6.394;2023-02-26T16:23:11;5.20;99.90
51922;DHT22;37948;53.260;6.394;2023-02-26T16:25:47;5.30;99.90
51922;DHT22;37948;53.260;6.394;2023-02-26T16:28:19;5.20;99.90
51922;DHT22;37948;53.260;6.394;2023-02-26T16:30:50;5.10;99.90
51922;DHT22;37948;53.260;6.394;2023-02-26T16:33:17;5.10;99.90
51922;DHT22;37948;53.260;6.394;2023-02-26T16:35:47;5.10;99.90
51922;DHT22;37948;53.260;6.394;2023-02-26T16:38:19;5.10;99.90
51922;DHT22;37948;53.260;6.394;2023-02-26T16:40:46;5.10;99.90
51922;DHT22;37948;53.260;6.394;2023-02-26T16:45:54;5.10;99.90
51922;DHT22;37948;53.260;6.394;2023-02-26T16:48:29;5.10;99.90
51922;DHT22;37948;53.260;6.394;2023-02-26T16:51:03;5.10;99.90
51922;DHT22;37948;53.260;6.394;2023-02-26T16:53:34;5.10;99.90
51922;DHT22;37948;53.260;6.394;2023-02-26T16:56:00;5.10;99.90
51922;DHT22;37948;53.260;6.394;2023-02-26T16:58:26;5.00;99.90
51922;DHT22;37948;53.260;6.394;2023-02-26T17:01:08;5.00;99.90
51922;DHT22;37948;53.260;6.394;2023-02-26T17:03:36;4.90;99.90
51922;DHT22;37948;53.260;6.394;2023-02-26T17:06:10;4.90;99.90
51922;DHT22;37948;53.260;6.394;2023-02-26T17:08:52;4.90;99.90
51922;DHT22;37948;53.260;6.394;2023-02-26T17:11:36;4.90;99.90
51922;DHT22;37948;53.260;6.394;2023-02-26T17:14:30;4.80;99.90
51922;DHT22;37948;53.260;6.394;2023-02-26T17:16:57;4.80;99.90
51922;DHT22;37948;53.260;6.394;2023-02-26T17:19:22;4.80;99.90
51922;DHT22;37948;53.260;6.394;2023-02-26T17:21:52;4.80;99.90
51922;DHT22;37948;53.260;6.394;2023-02-26T17:24:34;4.70;99.90
51922;DHT22;37948;53.260;6.394;2023-02-26T17:27:03;4.80;99.90
51922;DHT22;37948;53.260;6.394;2023-02-26T17:29:37;4.70;99.90
51922;DHT22;37948;53.260;6.394;2023-02-26T17:32:04;4.70;99.90
51922;DHT22;37948;53.260;6.394;2023-02-26T17:42:16;4.60;99.90
51922;DHT22;37948;53.260;6.394;2023-02-26T17:44:43;4.50;99.90
51922;DHT22;37948;53.260;6.394;2023-02-26T17:47:18;4.50;99.90
51922;DHT22;37948;53.260;6.394;2023-02-26T17:49:44;4.50;99.90
51922;DHT22;37948;53.260;6.394;2023-02-26T17:52:11;4.50;99.90
51922;DHT22;37948;53.260;6.394;2023-02-26T17:54:37;4.50;99.90
51922;DHT22;37948;53.260;6.394;2023-02-26T17:57:03;4.40;99.90
51922;DHT22;37948;53.260;6.394;2023-02-26T17:59:33;4.40;99.90
51922;DHT22;37948;53.260;6.394;2023-02-26T18:01:59;4.40;99.90
51922;DHT22;37948;53.260;6.394;2023-02-26T18:04:25;4.30;99.90
51922;DHT22;37948;53.260;6.394;2023-02-26T18:06:51;4.30;99.90
51922;DHT22;37948;53.260;6.394;2023-02-26T18:09:17;4.30;99.90
51922;DHT22;37948;53.260;6.394;2023-02-26T18:11:43;4.20;99.90
51922;DHT22;37948;53.260;6.394;2023-02-26T18:14:09;4.20;99.90
51922;DHT22;37948;53.260;6.394;2023-02-26T18:16:40;4.10;99.90
51922;DHT22;37948;53.260;6.394;2023-02-26T18:19:06;4.10;99.90
51922;DHT22;37948;53.260;6.394;2023-02-26T18:21:32;4.00;99.90
51922;DHT22;37948;53.260;6.394;2023-02-26T18:23:58;4.00;99.90
51922;DHT22;37948;53.260;6.394;2023-02-26T18:26:28;3.90;99.90
51922;DHT22;37948;53.260;6.394;2023-02-26T18:28:55;3.90;99.90
51922;DHT22;37948;53.260;6.394;2023-02-26T18:31:22;3.90;99.90
51922;DHT22;37948;53.260;6.394;2023-02-26T18:33:49;3.90;99.90
51922;DHT22;37948;53.260;6.394;2023-02-26T18:36:23;3.90;99.90
51922;DHT22;37948;53.260;6.394;2023-02-26T18:38:54;3.80;99.90
51922;DHT22;37948;53.260;6.394;2023-02-26T18:41:23;3.70;99.90
51922;DHT22;37948;53.260;6.394;2023-02-26T18:43:48;3.80;99.90
51922;DHT22;37948;53.260;6.394;2023-02-26T18:46:14;3.70;99.90
51922;DHT22;37948;53.260;6.394;2023-02-26T18:48:40;3.70;99.90
51922;DHT22;37948;53.260;6.394;2023-02-26T18:51:05;3.70;99.90
51922;DHT22;37948;53.260;6.394;2023-02-26T18:53:31;3.60;99.90
51922;DHT22;37948;53.260;6.394;2023-02-26T18:55:58;3.50;99.90
51922;DHT22;37948;53.260;6.394;2023-02-26T18:58:24;3.50;99.90
51922;DHT22;37948;53.260;6.394;2023-02-26T19:00:50;3.50;99.90
51922;DHT22;37948;53.260;6.394;2023-02-26T19:03:16;3.50;99.90
51922;DHT22;37948;53.260;6.394;2023-02-26T19:05:41;3.40;99.90
51922;DHT22;37948;53.260;6.394;2023-02-26T19:08:07;3.40;99.90
51922;DHT22;37948;53.260;6.394;2023-02-26T19:10:36;3.30;99.90
51922;DHT22;37948;53.260;6.394;2023-02-26T19:13:02;3.30;99.90
51922;DHT22;37948;53.260;6.394;2023-02-26T19:15:29;3.30;99.90
51922;DHT22;37948;53.260;6.394;2023-02-26T19:17:54;3.30;99.90